Time;durP1;ratioP1;P1;durP2;ratioP2;P2;SDS_P1;SDS_P2;PMS_P1;PMS_P2;Temp;Humidity;BMP_temperature;BMP_pressure;BME280_temperature;BME280_humidity;BME280_pressure;Samples;Min_cycle;Max_cycle;Signal;HPM_P1;HPM_P2
2021/12/09 00:01:27;;;;;;;5.30;4.80;;;;;;;;;;5055491;28;20271;-83
2021/12/09 00:03:57;;;;;;;5.35;4.85;;;;;;;;;;5055307;28;20381;-83
2021/12/09 00:06:28;;;;;;;6.35;5.65;;;;;;;;;;5055044;28;20224;-83
2021/12/09 00:09:02;;;;;;;5.22;4.72;;;;;;;;;;5054860;28;20317;-83
2021/12/09 00:11:30;;;;;;;4.75;4.35;;;;;;;;;;5055226;28;20546;-82
2021/12/09 00:13:58;;;;;;;4.82;4.30;;;;;;;;;;5055690;28;20272;-83
2021/12/09 00:16:26;;;;;;;4.78;4.38;;;;;;;;;;5054725;28;20316;-82
2021/12/09 00:18:53;;;;;;;5.18;4.72;;;;;;;;;;5055005;28;20197;-83
2021/12/09 00:21:21;;;;;;;5.05;4.55;;;;;;;;;;5054183;28;20202;-83
2021/12/09 00:23:48;;;;;;;5.45;4.95;;;;;;;;;;5054498;28;20212;-83
2021/12/09 00:26:17;;;;;;;5.78;5.18;;;;;;;;;;5054244;28;20221;-82
2021/12/09 00:28:45;;;;;;;5.47;4.80;;;;;;;;;;5054898;28;20208;-83
2021/12/09 00:31:14;;;;;;;5.88;5.38;;;;;;;;;;5054550;28;20628;-83
2021/12/09 00:33:44;;;;;;;7.03;5.97;;;;;;;;;;5054519;28;20193;-83
2021/12/09 00:36:15;;;;;;;7.25;6.53;;;;;;;;;;5054022;28;20692;-83
2021/12/09 00:38:42;;;;;;;6.35;5.75;;;;;;;;;;5054177;28;20192;-83
2021/12/09 00:41:12;;;;;;;6.50;5.90;;;;;;;;;;5053501;28;20205;-82
2021/12/09 00:43:41;;;;;;;6.15;5.55;;;;;;;;;;5054221;28;20213;-82
2021/12/09 00:46:09;;;;;;;6.57;5.97;;;;;;;;;;5054251;28;20213;-83
2021/12/09 00:48:38;;;;;;;6.80;6.07;;;;;;;;;;5054268;28;20200;-82
2021/12/09 00:51:07;;;;;;;6.60;5.97;;;;;;;;;;5054363;28;20566;-82
2021/12/09 00:53:35;;;;;;;4.55;4.15;;;;;;;;;;5054660;28;20182;-83
2021/12/09 00:56:04;;;;;;;5.25;4.80;;;;;;;;;;5054458;28;20222;-83
2021/12/09 00:58:32;;;;;;;5.47;4.97;;;;;;;;;;5053704;28;20205;-83
2021/12/09 01:01:00;;;;;;;5.78;4.65;;;;;;;;;;5053897;28;20201;-83
2021/12/09 01:03:28;;;;;;;5.30;4.90;;;;;;;;;;5054579;28;20202;-83
2021/12/09 01:05:55;;;;;;;6.07;5.45;;;;;;;;;;5054627;28;20222;-82
2021/12/09 01:08:23;;;;;;;4.90;4.43;;;;;;;;;;5054121;28;20229;-82
2021/12/09 01:10:51;;;;;;;6.07;5.47;;;;;;;;;;5053745;28;20202;-82
2021/12/09 01:13:19;;;;;;;8.20;6.82;;;;;;;;;;5053642;28;20205;-82
2021/12/09 01:15:46;;;;;;;6.25;5.68;;;;;;;;;;5054818;28;20229;-82
2021/12/09 01:18:15;;;;;;;8.00;6.78;;;;;;;;;;5054859;28;20202;-83
2021/12/09 01:20:43;;;;;;;11.50;7.38;;;;;;;;;;5054917;28;20217;-83
2021/12/09 01:23:10;;;;;;;7.45;6.60;;;;;;;;;;5054574;28;20208;-83
2021/12/09 01:25:38;;;;;;;7.20;6.50;;;;;;;;;;5055331;28;20226;-83
2021/12/09 01:28:08;;;;;;;10.40;8.13;;;;;;;;;;5055287;28;20206;-82
2021/12/09 01:30:36;;;;;;;10.10;9.10;;;;;;;;;;5055018;28;20655;-82
2021/12/09 01:33:06;;;;;;;11.73;10.60;;;;;;;;;;5055548;28;20600;-82
2021/12/09 01:35:38;;;;;;;12.55;9.88;;;;;;;;;;5054924;28;20225;-82
2021/12/09 01:38:11;;;;;;;13.50;10.27;;;;;;;;;;5055155;28;20202;-82
2021/12/09 01:40:40;;;;;;;11.32;9.80;;;;;;;;;;5053354;28;20228;-82
2021/12/09 01:43:07;;;;;;;12.05;9.52;;;;;;;;;;5052955;28;20190;-82
2021/12/09 01:45:35;;;;;;;7.43;6.72;;;;;;;;;;5053161;28;20218;-82
2021/12/09 01:48:03;;;;;;;6.93;6.18;;;;;;;;;;5052425;28;20202;-82
2021/12/09 01:50:32;;;;;;;7.80;7.00;;;;;;;;;;5052933;28;20186;-82
2021/12/09 01:53:01;;;;;;;8.45;7.32;;;;;;;;;;5052931;28;20186;-82
2021/12/09 01:55:30;;;;;;;8.25;7.45;;;;;;;;;;5053810;28;20228;-82
2021/12/09 01:57:58;;;;;;;5.75;5.18;;;;;;;;;;5053803;28;20567;-82
2021/12/09 02:00:31;;;;;;;6.63;5.93;;;;;;;;;;5053449;28;20201;-82
2021/12/09 02:02:59;;;;;;;4.88;4.38;;;;;;;;;;5053288;28;20190;-82
2021/12/09 02:05:28;;;;;;;4.13;3.55;;;;;;;;;;5053366;28;20221;-82
2021/12/09 02:07:56;;;;;;;5.28;4.78;;;;;;;;;;5053002;28;20234;-82
2021/12/09 02:10:25;;;;;;;7.10;6.40;;;;;;;;;;5053535;28;20197;-82
2021/12/09 02:12:53;;;;;;;6.18;5.45;;;;;;;;;;5057046;28;20193;-82
2021/12/09 02:15:24;;;;;;;8.70;6.72;;;;;;;;;;5057056;28;20735;-82
2021/12/09 02:17:55;;;;;;;6.50;5.40;;;;;;;;;;5056587;28;20684;-82
2021/12/09 02:20:27;;;;;;;7.03;6.32;;;;;;;;;;5056970;28;20197;-83
2021/12/09 02:22:56;;;;;;;6.63;6.00;;;;;;;;;;5056905;28;20186;-81
2021/12/09 02:25:25;;;;;;;7.07;5.93;;;;;;;;;;5057162;28;20236;-82
2021/12/09 02:27:52;;;;;;;8.35;7.28;;;;;;;;;;5056879;28;20205;-82
2021/12/09 02:30:20;;;;;;;7.97;7.05;;;;;;;;;;5056479;28;20189;-82
2021/12/09 02:32:47;;;;;;;7.32;6.63;;;;;;;;;;5055978;28;20174;-82
2021/12/09 02:35:15;;;;;;;7.38;5.85;;;;;;;;;;5056562;28;20219;-82
2021/12/09 02:37:44;;;;;;;5.13;4.28;;;;;;;;;;5056333;28;20209;-82
2021/12/09 02:40:13;;;;;;;5.82;5.28;;;;;;;;;;5056335;28;20652;-82
2021/12/09 02:42:41;;;;;;;5.47;4.97;;;;;;;;;;5056322;28;20269;-82
2021/12/09 02:45:10;;;;;;;7.43;6.82;;;;;;;;;;5035884;28;20218;-82
2021/12/09 02:47:38;;;;;;;6.90;6.00;;;;;;;;;;5036327;28;20533;-83
2021/12/09 02:50:08;;;;;;;6.88;6.15;;;;;;;;;;5039892;28;20189;-82
2021/12/09 02:52:36;;;;;;;7.55;5.95;;;;;;;;;;5056356;28;20789;-82
2021/12/09 02:55:06;;;;;;;7.40;6.70;;;;;;;;;;5056078;28;20218;-82
2021/12/09 02:57:34;;;;;;;7.75;6.28;;;;;;;;;;5055704;28;20210;-81
2021/12/09 03:00:02;;;;;;;4.40;4.00;;;;;;;;;;5055895;28;20644;-82
2021/12/09 03:02:29;;;;;;;4.63;4.22;;;;;;;;;;5056177;28;20189;-82
2021/12/09 03:05:01;;;;;;;5.50;5.00;;;;;;;;;;5055757;28;20226;-82
2021/12/09 03:07:33;;;;;;;5.43;4.93;;;;;;;;;;5054837;28;20590;-82
2021/12/09 03:10:10;;;;;;;5.63;5.07;;;;;;;;;;5055029;28;20194;-82
2021/12/09 03:12:41;;;;;;;5.90;5.30;;;;;;;;;;5055426;28;20577;-82
2021/12/09 03:15:10;;;;;;;7.70;7.00;;;;;;;;;;5055355;28;20308;-82
2021/12/09 03:17:39;;;;;;;8.57;6.65;;;;;;;;;;5055594;28;20212;-82
2021/12/09 03:20:09;;;;;;;7.93;7.13;;;;;;;;;;5055635;28;20189;-82
2021/12/09 03:22:37;;;;;;;8.30;7.50;;;;;;;;;;5055097;28;20190;-82
2021/12/09 03:25:08;;;;;;;8.35;7.55;;;;;;;;;;5054852;28;20221;-82
2021/12/09 03:27:36;;;;;;;6.68;6.05;;;;;;;;;;5054807;28;20182;-82
2021/12/09 03:30:08;;;;;;;9.68;6.97;;;;;;;;;;5054854;28;20637;-83
2021/12/09 03:32:35;;;;;;;6.88;6.22;;;;;;;;;;5054984;28;20197;-83
2021/12/09 03:35:03;;;;;;;9.68;6.03;;;;;;;;;;5054106;28;20222;-83
2021/12/09 03:37:31;;;;;;;6.25;5.45;;;;;;;;;;5054605;28;20206;-82
2021/12/09 03:39:59;;;;;;;4.93;4.50;;;;;;;;;;5054729;28;20566;-83
2021/12/09 03:42:31;;;;;;;6.47;5.85;;;;;;;;;;5054817;28;20182;-83
2021/12/09 03:44:59;;;;;;;9.25;7.90;;;;;;;;;;5055165;28;20594;-82
2021/12/09 03:47:31;;;;;;;8.40;6.97;;;;;;;;;;5055075;28;20182;-82
2021/12/09 03:49:59;;;;;;;6.43;5.82;;;;;;;;;;5055171;28;20190;-82
2021/12/09 03:52:28;;;;;;;6.45;5.32;;;;;;;;;;5055387;28;20178;-82
2021/12/09 03:54:58;;;;;;;5.50;4.25;;;;;;;;;;5051481;28;20231;-82
2021/12/09 03:57:27;;;;;;;5.03;4.63;;;;;;;;;;5035002;28;20210;-82
2021/12/09 03:59:55;;;;;;;7.88;7.07;;;;;;;;;;5034840;28;20653;-83
2021/12/09 04:02:23;;;;;;;6.00;5.43;;;;;;;;;;5034349;28;20202;-82
2021/12/09 04:04:50;;;;;;;5.47;5.03;;;;;;;;;;5034519;28;20567;-82
2021/12/09 04:07:18;;;;;;;5.90;5.28;;;;;;;;;;5049168;28;20640;-82
2021/12/09 04:09:46;;;;;;;5.22;4.82;;;;;;;;;;5054723;28;20205;-82
2021/12/09 04:12:14;;;;;;;4.97;4.53;;;;;;;;;;5054605;28;20186;-82
2021/12/09 04:14:43;;;;;;;6.18;5.60;;;;;;;;;;5054303;28;20190;-82
2021/12/09 04:17:11;;;;;;;5.68;4.75;;;;;;;;;;5054142;28;20245;-82
2021/12/09 04:19:46;;;;;;;5.50;4.47;;;;;;;;;;5053768;28;20676;-82
2021/12/09 04:22:15;;;;;;;7.07;6.47;;;;;;;;;;5054369;28;20185;-82
2021/12/09 04:24:42;;;;;;;9.38;5.90;;;;;;;;;;5053945;28;20185;-82
2021/12/09 04:27:10;;;;;;;5.63;5.15;;;;;;;;;;5054005;28;20187;-82
2021/12/09 04:29:37;;;;;;;4.50;4.10;;;;;;;;;;5054320;28;20190;-82
2021/12/09 04:32:07;;;;;;;8.00;5.50;;;;;;;;;;5053607;28;20207;-81
2021/12/09 04:34:35;;;;;;;4.40;4.00;;;;;;;;;;5053558;28;20213;-82
2021/12/09 04:37:03;;;;;;;5.93;5.43;;;;;;;;;;5054035;28;20671;-82
2021/12/09 04:39:30;;;;;;;5.13;4.65;;;;;;;;;;5053864;28;20205;-82
2021/12/09 04:41:58;;;;;;;7.28;6.55;;;;;;;;;;5053645;28;20198;-82
2021/12/09 04:44:25;;;;;;;7.05;6.35;;;;;;;;;;5054008;28;20206;-82
2021/12/09 04:46:53;;;;;;;6.53;5.93;;;;;;;;;;5054100;28;20569;-82
2021/12/09 04:49:21;;;;;;;7.40;6.65;;;;;;;;;;5053813;28;20205;-82
2021/12/09 04:51:49;;;;;;;8.07;7.28;;;;;;;;;;5053641;28;20205;-82
2021/12/09 04:54:17;;;;;;;9.02;7.72;;;;;;;;;;5054083;28;20284;-81
2021/12/09 04:56:45;;;;;;;10.15;9.02;;;;;;;;;;5053747;28;20225;-82
2021/12/09 04:59:13;;;;;;;8.75;7.85;;;;;;;;;;5053848;28;20225;-82
2021/12/09 05:01:44;;;;;;;10.80;8.50;;;;;;;;;;5054086;28;20569;-82
2021/12/09 05:04:11;;;;;;;9.38;7.90;;;;;;;;;;5053949;28;20632;-82
2021/12/09 05:06:40;;;;;;;8.02;7.22;;;;;;;;;;5053786;28;20237;-82
2021/12/09 05:09:11;;;;;;;7.78;7.07;;;;;;;;;;5052896;28;20221;-82
2021/12/09 05:11:48;;;;;;;7.80;6.75;;;;;;;;;;5053829;28;20186;-82
2021/12/09 05:14:17;;;;;;;8.73;7.05;;;;;;;;;;5053090;28;20252;-82
2021/12/09 05:16:46;;;;;;;7.65;6.55;;;;;;;;;;5054101;28;20229;-82
2021/12/09 05:19:14;;;;;;;5.97;5.22;;;;;;;;;;5053924;28;20208;-82
2021/12/09 05:21:42;;;;;;;3.67;3.38;;;;;;;;;;5054008;28;20206;-83
2021/12/09 05:24:12;;;;;;;3.70;3.33;;;;;;;;;;5053876;28;20193;-83
2021/12/09 05:26:45;;;;;;;3.33;3.03;;;;;;;;;;5054062;28;20221;-82
2021/12/09 05:29:13;;;;;;;3.92;3.53;;;;;;;;;;5053524;28;20755;-83
2021/12/09 05:34:26;;;;;;;4.50;3.33;;;;;;;;;;5053854;28;20178;-82
2021/12/09 05:36:56;;;;;;;4.43;4.03;;;;;;;;;;5053746;28;20182;-82
2021/12/09 05:39:24;;;;;;;4.57;3.90;;;;;;;;;;5053286;28;20679;-82
2021/12/09 05:41:53;;;;;;;5.97;4.60;;;;;;;;;;5053718;28;20200;-82
2021/12/09 05:44:20;;;;;;;2.60;2.40;;;;;;;;;;5053242;28;20285;-82
2021/12/09 05:46:49;;;;;;;3.72;3.40;;;;;;;;;;5056014;28;20228;-82
2021/12/09 05:49:17;;;;;;;3.05;2.30;;;;;;;;;;5057487;28;20205;-82
2021/12/09 05:51:46;;;;;;;3.03;2.72;;;;;;;;;;5060229;28;20190;-82
2021/12/09 05:54:15;;;;;;;3.72;3.28;;;;;;;;;;5058385;28;20221;-82
2021/12/09 05:56:43;;;;;;;3.50;3.20;;;;;;;;;;5057790;28;20228;-82
2021/12/09 05:59:13;;;;;;;2.13;1.95;;;;;;;;;;5057721;28;20706;-82
2021/12/09 06:01:41;;;;;;;2.83;2.25;;;;;;;;;;5057627;28;20581;-82
2021/12/09 06:04:10;;;;;;;2.88;2.67;;;;;;;;;;5057890;28;20193;-82
2021/12/09 06:06:39;;;;;;;2.42;2.00;;;;;;;;;;5057201;28;20225;-82
2021/12/09 06:09:10;;;;;;;2.20;2.00;;;;;;;;;;5056617;28;20221;-82
2021/12/09 06:11:39;;;;;;;2.42;2.22;;;;;;;;;;5057772;28;20186;-82
2021/12/09 06:14:09;;;;;;;2.47;2.28;;;;;;;;;;5056394;28;20572;-82
2021/12/09 06:16:37;;;;;;;2.08;1.83;;;;;;;;;;5057512;28;20267;-82
2021/12/09 06:19:05;;;;;;;2.80;2.58;;;;;;;;;;5057318;28;20581;-82
2021/12/09 06:21:33;;;;;;;2.35;1.90;;;;;;;;;;5057526;28;20190;-82
2021/12/09 06:24:02;;;;;;;2.95;2.75;;;;;;;;;;5057565;28;20212;-81
2021/12/09 06:26:31;;;;;;;2.22;2.03;;;;;;;;;;5057018;28;20249;-82
2021/12/09 06:29:00;;;;;;;1.80;1.67;;;;;;;;;;5056567;28;20632;-82
2021/12/09 06:31:28;;;;;;;2.65;1.70;;;;;;;;;;5056907;28;20182;-82
2021/12/09 06:33:56;;;;;;;1.75;1.58;;;;;;;;;;5056634;28;20679;-82
2021/12/09 06:36:23;;;;;;;14.80;6.63;;;;;;;;;;5056630;28;20232;-82
2021/12/09 06:38:51;;;;;;;12.13;7.47;;;;;;;;;;5056877;28;20206;-82
2021/12/09 06:41:19;;;;;;;7.50;4.25;;;;;;;;;;5055672;28;20182;-82
2021/12/09 06:43:46;;;;;;;4.13;2.70;;;;;;;;;;5055325;28;20183;-82
2021/12/09 06:46:15;;;;;;;2.90;2.42;;;;;;;;;;5056595;28;20227;-82
2021/12/09 06:48:43;;;;;;;7.38;5.07;;;;;;;;;;5056868;28;20192;-81
2021/12/09 06:51:11;;;;;;;8.18;4.47;;;;;;;;;;5056531;28;20655;-82
2021/12/09 06:53:38;;;;;;;4.70;3.78;;;;;;;;;;5056518;28;20656;-82
2021/12/09 06:56:07;;;;;;;5.13;3.88;;;;;;;;;;5056784;28;20229;-82
2021/12/09 06:58:37;;;;;;;4.93;4.32;;;;;;;;;;5055721;28;20586;-82
2021/12/09 07:01:07;;;;;;;3.83;3.42;;;;;;;;;;5055970;28;20699;-82
2021/12/09 07:03:38;;;;;;;4.13;3.35;;;;;;;;;;5056694;28;20202;-82
2021/12/09 07:06:08;;;;;;;3.85;3.08;;;;;;;;;;5055741;28;20222;-82
2021/12/09 07:08:42;;;;;;;4.32;3.45;;;;;;;;;;5043562;28;20640;-82
2021/12/09 07:11:09;;;;;;;3.85;3.55;;;;;;;;;;5036163;28;20187;-82
2021/12/09 07:13:37;;;;;;;2.35;2.15;;;;;;;;;;5036060;28;20195;-82
2021/12/09 07:16:05;;;;;;;3.47;3.15;;;;;;;;;;5035118;28;20233;-82
2021/12/09 07:18:35;;;;;;;2.20;1.70;;;;;;;;;;5036033;28;20185;-82
2021/12/09 07:21:03;;;;;;;1.63;1.52;;;;;;;;;;5035525;28;20210;-82
2021/12/09 07:23:30;;;;;;;1.30;1.23;;;;;;;;;;5035424;28;20193;-82
2021/12/09 07:25:58;;;;;;;1.40;1.30;;;;;;;;;;5035060;28;20222;-82
2021/12/09 07:28:25;;;;;;;5.72;4.82;;;;;;;;;;5035248;28;20187;-82
2021/12/09 07:30:53;;;;;;;4.30;3.90;;;;;;;;;;5035754;28;20202;-82
2021/12/09 07:33:21;;;;;;;7.40;6.28;;;;;;;;;;5035138;28;20190;-83
2021/12/09 07:35:50;;;;;;;6.85;6.15;;;;;;;;;;5035491;28;20613;-84
2021/12/09 07:38:17;;;;;;;6.22;5.63;;;;;;;;;;5035263;28;20198;-84
2021/12/09 07:40:45;;;;;;;4.30;3.90;;;;;;;;;;5035850;28;20213;-82
2021/12/09 07:43:13;;;;;;;5.85;5.25;;;;;;;;;;5035334;28;20688;-82
2021/12/09 07:45:41;;;;;;;6.78;5.50;;;;;;;;;;5034435;28;20218;-82
2021/12/09 07:48:08;;;;;;;7.07;6.43;;;;;;;;;;5034491;28;20294;-82
2021/12/09 07:50:35;;;;;;;7.10;6.40;;;;;;;;;;5035000;28;20213;-82
2021/12/09 07:53:04;;;;;;;10.38;6.07;;;;;;;;;;5034287;28;20193;-82
2021/12/09 07:55:32;;;;;;;6.10;5.50;;;;;;;;;;5034250;28;20222;-82
2021/12/09 07:58:00;;;;;;;6.60;5.93;;;;;;;;;;5034416;28;20205;-82
2021/12/09 08:00:29;;;;;;;5.28;4.78;;;;;;;;;;5033922;28;20207;-82
2021/12/09 08:02:59;;;;;;;3.60;3.03;;;;;;;;;;5034113;28;20195;-82
2021/12/09 08:05:28;;;;;;;2.45;2.03;;;;;;;;;;5034069;28;20218;-82
2021/12/09 08:07:55;;;;;;;2.33;2.13;;;;;;;;;;5040363;28;20226;-82
2021/12/09 08:10:24;;;;;;;3.33;2.53;;;;;;;;;;5053629;28;20687;-82
2021/12/09 08:12:52;;;;;;;1.73;1.63;;;;;;;;;;5054143;28;20194;-82
2021/12/09 08:15:20;;;;;;;1.35;1.25;;;;;;;;;;5054253;28;20264;-82
2021/12/09 08:18:01;;;;;;;1.23;1.23;;;;;;;;;;5053373;28;20198;-82
2021/12/09 08:20:29;;;;;;;1.30;1.30;;;;;;;;;;5054018;28;20202;-82
2021/12/09 08:22:57;;;;;;;1.67;1.50;;;;;;;;;;5054237;28;20179;-82
2021/12/09 08:25:26;;;;;;;3.00;2.78;;;;;;;;;;5054070;28;20228;-82
2021/12/09 08:27:54;;;;;;;5.28;3.80;;;;;;;;;;5053858;28;20186;-82
2021/12/09 08:30:25;;;;;;;3.97;3.50;;;;;;;;;;5053438;28;20296;-82
2021/12/09 08:32:52;;;;;;;2.72;2.10;;;;;;;;;;5034258;28;20265;-82
2021/12/09 08:35:20;;;;;;;1.98;1.77;;;;;;;;;;5033458;28;20225;-80
2021/12/09 08:37:49;;;;;;;2.03;1.80;;;;;;;;;;5034065;28;20637;-81
2021/12/09 08:40:18;;;;;;;2.53;2.33;;;;;;;;;;5050155;28;20213;-81
2021/12/09 08:42:49;;;;;;;3.58;3.28;;;;;;;;;;5053734;28;20272;-80
2021/12/09 08:45:17;;;;;;;3.53;3.17;;;;;;;;;;5053629;28;20257;-80
2021/12/09 08:47:46;;;;;;;4.68;4.13;;;;;;;;;;5053804;28;20189;-80
2021/12/09 08:50:20;;;;;;;8.02;6.32;;;;;;;;;;5053231;28;20197;-80
2021/12/09 08:52:51;;;;;;;8.40;5.25;;;;;;;;;;5053109;28;20194;-80
2021/12/09 08:55:21;;;;;;;6.75;6.15;;;;;;;;;;5052639;28;20232;-81
2021/12/09 08:57:52;;;;;;;6.68;5.95;;;;;;;;;;5052794;28;20194;-83
2021/12/09 09:00:20;;;;;;;7.28;6.30;;;;;;;;;;5052782;28;20213;-81
2021/12/09 09:02:50;;;;;;;5.10;4.57;;;;;;;;;;5053138;28;20190;-81
2021/12/09 09:05:17;;;;;;;5.50;4.47;;;;;;;;;;5053115;28;20229;-80
2021/12/09 09:07:46;;;;;;;4.50;4.10;;;;;;;;;;5049652;28;20240;-81
2021/12/09 09:10:18;;;;;;;6.20;5.03;;;;;;;;;;5052596;28;20198;-80
2021/12/09 09:12:46;;;;;;;17.25;6.10;;;;;;;;;;5053284;28;20201;-80
2021/12/09 09:15:18;;;;;;;8.18;6.70;;;;;;;;;;5037396;28;20222;-80
2021/12/09 09:17:46;;;;;;;10.35;8.50;;;;;;;;;;5034415;28;20189;-81
2021/12/09 09:20:17;;;;;;;11.77;8.88;;;;;;;;;;5033996;28;20191;-81
2021/12/09 09:22:45;;;;;;;9.93;8.20;;;;;;;;;;5037144;28;20187;-82
2021/12/09 09:25:17;;;;;;;6.72;5.80;;;;;;;;;;5037332;28;20707;-81
2021/12/09 09:27:45;;;;;;;10.15;8.45;;;;;;;;;;5034055;28;20214;-81
2021/12/09 09:30:17;;;;;;;7.57;6.70;;;;;;;;;;5036374;28;20193;-81
2021/12/09 09:32:46;;;;;;;5.40;4.82;;;;;;;;;;5037392;28;20183;-81
2021/12/09 09:35:13;;;;;;;9.32;6.43;;;;;;;;;;5041551;28;20217;-81
2021/12/09 09:37:41;;;;;;;7.05;6.30;;;;;;;;;;5056284;28;20277;-81
2021/12/09 09:40:14;;;;;;;11.38;9.38;;;;;;;;;;5056729;28;20564;-82
2021/12/09 09:43:01;;;;;;;10.13;8.38;;;;;;;;;;5054666;28;20201;-80
2021/12/09 09:45:31;;;;;;;8.02;6.85;;;;;;;;;;5025940;28;20225;-81
2021/12/09 09:47:59;;;;;;;9.00;6.85;;;;;;;;;;5036323;28;20568;-82
2021/12/09 09:50:27;;;;;;;9.05;6.38;;;;;;;;;;5036680;28;20206;-81
2021/12/09 09:52:56;;;;;;;8.68;6.80;;;;;;;;;;5036433;28;20392;-82
2021/12/09 09:55:23;;;;;;;7.97;6.78;;;;;;;;;;5036471;28;20226;-82
2021/12/09 09:57:53;;;;;;;5.75;5.25;;;;;;;;;;5036301;28;20207;-81
2021/12/09 10:00:22;;;;;;;6.10;5.50;;;;;;;;;;5029414;28;20213;-81
2021/12/09 10:02:54;;;;;;;10.35;7.70;;;;;;;;;;5017925;28;20306;-81
2021/12/09 10:05:34;;;;;;;6.20;5.60;;;;;;;;;;5016206;28;20727;-82
2021/12/09 10:08:01;;;;;;;7.65;6.32;;;;;;;;;;5024947;28;20288;-82
2021/12/09 10:10:29;;;;;;;6.50;5.75;;;;;;;;;;5036705;28;20234;-82
2021/12/09 10:13:01;;;;;;;8.82;6.80;;;;;;;;;;5044316;28;20194;-82
2021/12/09 10:15:43;;;;;;;7.47;6.68;;;;;;;;;;5056696;28;20646;-82
2021/12/09 10:18:13;;;;;;;7.93;7.22;;;;;;;;;;5056558;28;20669;-81
2021/12/09 10:20:52;;;;;;;7.70;6.53;;;;;;;;;;5056642;28;20193;-81
2021/12/09 10:23:31;;;;;;;9.05;4.82;;;;;;;;;;5057086;28;20710;-81
2021/12/09 10:26:24;;;;;;;4.82;3.20;;;;;;;;;;5056745;28;20245;-81
2021/12/09 10:28:57;;;;;;;3.85;2.90;;;;;;;;;;5056097;28;20665;-82
2021/12/09 10:31:33;;;;;;;3.92;2.80;;;;;;;;;;5055593;28;20185;-81
2021/12/09 10:34:16;;;;;;;2.72;2.47;;;;;;;;;;5055955;28;20276;-81
2021/12/09 10:36:58;;;;;;;8.85;2.22;;;;;;;;;;5056760;28;20217;-82
2021/12/09 10:39:34;;;;;;;7.65;6.80;;;;;;;;;;5056177;28;20208;-83
2021/12/09 10:42:06;;;;;;;12.00;9.77;;;;;;;;;;5056253;28;20198;-83
2021/12/09 10:44:39;;;;;;;8.10;6.55;;;;;;;;;;5056442;28;20201;-83
2021/12/09 10:47:14;;;;;;;9.38;8.38;;;;;;;;;;5055929;28;20194;-83
2021/12/09 10:50:05;;;;;;;7.47;6.22;;;;;;;;;;5056418;28;20276;-83
2021/12/09 10:52:39;;;;;;;8.40;6.68;;;;;;;;;;5055964;28;20186;-83
2021/12/09 10:55:23;;;;;;;7.65;6.22;;;;;;;;;;5056351;28;20240;-82
2021/12/09 10:58:08;;;;;;;9.13;5.93;;;;;;;;;;5055820;28;20202;-83
2021/12/09 11:00:43;;;;;;;5.75;4.90;;;;;;;;;;5055502;28;20197;-83
2021/12/09 11:03:21;;;;;;;6.63;5.28;;;;;;;;;;5055978;28;20225;-83
2021/12/09 11:05:57;;;;;;;7.43;6.72;;;;;;;;;;5055763;28;20232;-83
2021/12/09 11:08:32;;;;;;;6.15;5.18;;;;;;;;;;5055629;28;20234;-83
2021/12/09 11:11:11;;;;;;;10.55;7.00;;;;;;;;;;5055698;28;20182;-83
2021/12/09 11:13:48;;;;;;;10.55;8.20;;;;;;;;;;5057652;28;20197;-84
2021/12/09 11:16:24;;;;;;;13.23;6.88;;;;;;;;;;5058271;28;20210;-84
2021/12/09 11:18:56;;;;;;;11.88;7.53;;;;;;;;;;5057742;28;20204;-84
2021/12/09 11:21:30;;;;;;;6.72;6.13;;;;;;;;;;5057765;28;20190;-84
2021/12/09 11:24:02;;;;;;;9.18;6.55;;;;;;;;;;5057841;28;20229;-84
2021/12/09 11:26:52;;;;;;;6.50;5.65;;;;;;;;;;5057376;28;20268;-83
2021/12/09 11:29:23;;;;;;;5.28;4.78;;;;;;;;;;5058076;28;20186;-84
2021/12/09 11:32:00;;;;;;;7.13;6.35;;;;;;;;;;5056637;28;20651;-83
2021/12/09 11:34:43;;;;;;;6.82;6.07;;;;;;;;;;5056081;28;20197;-83
2021/12/09 11:37:36;;;;;;;4.72;4.20;;;;;;;;;;5036988;28;20238;-83
2021/12/09 11:40:17;;;;;;;4.90;4.40;;;;;;;;;;5037643;28;20198;-83
2021/12/09 11:42:49;;;;;;;7.80;5.88;;;;;;;;;;5056126;28;20214;-84
2021/12/09 11:45:21;;;;;;;8.00;6.10;;;;;;;;;;5055590;28;20213;-83
2021/12/09 11:47:52;;;;;;;5.82;5.20;;;;;;;;;;5055289;28;20185;-83
2021/12/09 11:50:22;;;;;;;10.88;6.47;;;;;;;;;;5055591;28;20201;-83
2021/12/09 11:52:53;;;;;;;8.38;7.57;;;;;;;;;;5055296;28;20198;-83
2021/12/09 11:55:28;;;;;;;7.03;6.32;;;;;;;;;;5055543;28;20221;-84
2021/12/09 11:58:00;;;;;;;9.00;7.07;;;;;;;;;;5055708;28;20196;-83
2021/12/09 12:07:18;;;;;;;6.13;5.53;;;;;;;;;;4974713;28;20226;-83
2021/12/09 12:12:58;;;;;;;5.43;4.57;;;;;;;;;;4974266;28;20223;-84
2021/12/09 12:15:38;;;;;;;5.63;5.10;;;;;;;;;;4974093;28;20322;-84
2021/12/09 12:18:28;;;;;;;5.00;4.50;;;;;;;;;;5009537;28;20627;-84
2021/12/09 12:21:09;;;;;;;5.75;4.55;;;;;;;;;;5035246;28;20206;-84
2021/12/09 12:23:47;;;;;;;7.38;5.80;;;;;;;;;;5035169;28;20229;-84
2021/12/09 12:26:53;;;;;;;6.38;5.75;;;;;;;;;;5033974;28;20249;-83
2021/12/09 12:29:39;;;;;;;5.18;4.55;;;;;;;;;;5034347;28;20238;-84
2021/12/09 12:35:14;;;;;;;5.35;4.85;;;;;;;;;;5033171;28;20220;-83
2021/12/09 12:38:02;;;;;;;5.85;4.22;;;;;;;;;;5034266;28;20202;-82
2021/12/09 12:40:37;;;;;;;5.47;4.20;;;;;;;;;;5034924;28;20346;-83
2021/12/09 12:43:10;;;;;;;7.22;5.18;;;;;;;;;;5034788;28;20228;-82
2021/12/09 12:45:57;;;;;;;8.43;4.95;;;;;;;;;;5034382;28;20234;-82
2021/12/09 12:48:46;;;;;;;5.45;4.32;;;;;;;;;;5034349;28;20218;-81
2021/12/09 12:51:20;;;;;;;8.70;5.72;;;;;;;;;;5034775;28;20199;-83
2021/12/09 12:53:52;;;;;;;5.65;4.80;;;;;;;;;;5034381;28;20237;-82
2021/12/09 12:56:23;;;;;;;5.72;5.13;;;;;;;;;;5034513;28;20230;-82
2021/12/09 12:59:20;;;;;;;7.18;6.43;;;;;;;;;;5034754;28;20622;-83
2021/12/09 13:02:15;;;;;;;8.18;7.28;;;;;;;;;;5034581;28;20310;-82
2021/12/09 13:04:54;;;;;;;10.82;8.15;;;;;;;;;;5034247;28;20209;-83
2021/12/09 13:07:33;;;;;;;11.07;8.02;;;;;;;;;;5036480;28;20179;-82
2021/12/09 13:10:28;;;;;;;6.28;5.57;;;;;;;;;;5054446;28;20201;-82
2021/12/09 13:13:14;;;;;;;7.15;6.03;;;;;;;;;;5054875;28;20189;-82
2021/12/09 13:16:10;;;;;;;6.18;4.93;;;;;;;;;;5053753;28;20252;-83
2021/12/09 13:19:11;;;;;;;4.88;4.38;;;;;;;;;;5054448;28;20226;-83
2021/12/09 13:21:51;;;;;;;5.88;3.95;;;;;;;;;;5034653;28;20232;-82
2021/12/09 13:24:28;;;;;;;7.65;5.30;;;;;;;;;;5034260;28;20226;-82
2021/12/09 13:27:31;;;;;;;6.50;4.90;;;;;;;;;;5043093;28;20200;-82
2021/12/09 13:30:26;;;;;;;4.85;4.38;;;;;;;;;;5054012;28;20201;-82
2021/12/09 13:33:08;;;;;;;8.50;5.93;;;;;;;;;;5054008;28;20665;-82
2021/12/09 13:47:04;;;;;;;3.88;3.25;;;;;;;;;;5052509;28;20590;-82
2021/12/09 13:49:47;;;;;;;4.25;3.05;;;;;;;;;;5053116;28;20194;-82
2021/12/09 13:55:10;;;;;;;6.85;3.20;;;;;;;;;;5053269;28;20745;-81
2021/12/09 13:57:40;;;;;;;3.05;2.75;;;;;;;;;;5053608;28;20189;-83
2021/12/09 14:00:17;;;;;;;3.75;3.45;;;;;;;;;;5053166;28;20193;-82
2021/12/09 14:02:50;;;;;;;4.95;3.28;;;;;;;;;;5052796;28;20257;-81
2021/12/09 14:05:19;;;;;;;3.35;3.10;;;;;;;;;;5053274;28;20226;-81
2021/12/09 14:07:56;;;;;;;3.15;2.58;;;;;;;;;;5056262;28;20221;-82
2021/12/09 14:10:28;;;;;;;5.32;3.30;;;;;;;;;;5056945;28;20190;-82
2021/12/09 14:13:01;;;;;;;4.40;3.13;;;;;;;;;;5056785;28;20313;-82
2021/12/09 14:15:37;;;;;;;5.07;3.47;;;;;;;;;;5057114;28;20221;-82
2021/12/09 14:18:17;;;;;;;6.15;3.45;;;;;;;;;;5056496;28;20671;-82
2021/12/09 14:20:47;;;;;;;5.15;3.33;;;;;;;;;;5057435;28;20181;-82
2021/12/09 14:23:16;;;;;;;5.50;4.30;;;;;;;;;;5057553;28;20221;-82
2021/12/09 14:25:45;;;;;;;4.32;3.97;;;;;;;;;;5057145;28;20230;-81
2021/12/09 14:28:18;;;;;;;3.42;3.13;;;;;;;;;;5056190;28;20288;-82
2021/12/09 14:30:50;;;;;;;4.47;4.00;;;;;;;;;;5055788;28;20198;-82
2021/12/09 14:33:20;;;;;;;6.43;5.32;;;;;;;;;;5056416;28;20190;-81
2021/12/09 14:35:54;;;;;;;6.30;4.75;;;;;;;;;;5056784;28;20218;-82
2021/12/09 14:38:24;;;;;;;8.45;7.43;;;;;;;;;;5056977;28;20283;-83
2021/12/09 14:40:56;;;;;;;6.03;4.97;;;;;;;;;;5057432;28;20186;-82
2021/12/09 14:43:26;;;;;;;5.13;4.57;;;;;;;;;;5057847;28;20261;-83
2021/12/09 14:45:59;;;;;;;5.35;3.95;;;;;;;;;;5058025;28;20220;-83
2021/12/09 14:48:32;;;;;;;4.97;4.20;;;;;;;;;;5057899;28;20652;-83
2021/12/09 14:51:14;;;;;;;4.32;3.72;;;;;;;;;;5057522;28;20190;-83
2021/12/09 14:54:27;;;;;;;3.50;3.20;;;;;;;;;;5057523;28;20255;-82
2021/12/09 14:57:06;;;;;;;4.78;3.95;;;;;;;;;;5054966;28;20201;-82
2021/12/09 14:59:37;;;;;;;5.70;4.53;;;;;;;;;;5057879;28;20535;-84
2021/12/09 15:02:12;;;;;;;4.43;4.00;;;;;;;;;;5057951;28;20667;-84
2021/12/09 15:04:44;;;;;;;5.70;4.68;;;;;;;;;;5053365;28;20284;-83
2021/12/09 15:07:24;;;;;;;3.88;3.53;;;;;;;;;;5058265;28;20197;-83
2021/12/09 15:10:00;;;;;;;5.68;4.85;;;;;;;;;;5070725;28;20220;-84
2021/12/09 15:12:33;;;;;;;5.38;4.82;;;;;;;;;;5071966;28;20192;-84
2021/12/09 15:15:02;;;;;;;7.65;6.82;;;;;;;;;;5078065;28;20278;-83
2021/12/09 15:17:31;;;;;;;6.50;4.88;;;;;;;;;;5077849;28;20255;-83
2021/12/09 15:20:08;;;;;;;6.85;5.80;;;;;;;;;;5071848;28;20186;-84
2021/12/09 15:22:54;;;;;;;7.80;6.22;;;;;;;;;;5057502;28;20257;-82
2021/12/09 15:25:22;;;;;;;7.00;4.45;;;;;;;;;;5056973;28;20221;-83
2021/12/09 15:27:59;;;;;;;8.23;5.38;;;;;;;;;;5056560;28;20205;-83
2021/12/09 15:30:44;;;;;;;6.05;5.45;;;;;;;;;;5063983;28;20227;-83
2021/12/09 15:33:15;;;;;;;8.32;5.53;;;;;;;;;;5077296;28;20189;-83
2021/12/09 15:35:43;;;;;;;6.43;5.38;;;;;;;;;;5076224;28;20225;-83
2021/12/09 15:38:25;;;;;;;7.25;5.15;;;;;;;;;;5076082;28;20200;-83
2021/12/09 15:40:52;;;;;;;5.78;5.20;;;;;;;;;;5076209;28;20185;-83